Gainesville, FL

3:37 AM EDT on September 02, 2014 (GMT -0400)
KWFLHIGH2 | Change Station
CLOSE
Current Station
Personal Weather Station
Location: South of High Springs, FL
Elevation: 80 ft
Nearby Weather Stations

Elev 80 ft 29.74 °N, 82.62 °W | Updated 11 seconds ago

Clear
Clear
74.5 °F
Feels Like 77 °F
N
0.0
Wind Variable Wind from NW
Gusts 0.0 mph

Today
High -- | Low -- °F
--% Chance of Precip.
Yesterday
High -- | Low -- °F
Precip. -- in
7:07 AM 7:50 PM
Waxing Crescent, 49% visible
Pressure 30.06 in
Visibility 10.0 miles
Clouds Clear
Heat Index 77 °F
Dew Point 58 °F
Humidity 57%
Rainfall 0.00 in
Snow Depth Not available.
UV 0 out of 12
Pollen 8.50 out of 12
Air Quality Not available.
Flu Activity Not available.
METAR KGNV 020653Z AUTO 00000KT 10SM CLR 23/23 A3007 RMK AO2 SLP180 T02330228 $

More Conditions Fewer Conditions

Pressure 30.06 in
Visibility 10.0 miles
Clouds Clear
Heat Index 77 °F
Dew Point 58 °F
Humidity 57%
Rainfall 0.00 in
Snow Depth Not available.
UV 0 out of 12
Pollen 8.50 out of 12
Air Quality Not available.
Flu Activity Not available.
METAR KGNV 020653Z AUTO 00000KT 10SM CLR 23/23 A3007 RMK AO2 SLP180 T02330228 $

More Conditions Fewer Conditions

10-Day Weather Forecast

Almanac

Astronomy

Sep. 02, 2014 Rise Set
Actual Time 7:07 AM EDT 7:50 PM EDT
Civil Twilight 6:43 AM EDT 8:14 PM EDT
Nautical Twilight 6:14 AM EDT 8:43 PM EDT
Astronomical Twilight 5:45 AM EDT 9:12 PM EDT
Moon 2:19 PM EDT 12:22 AM EDT
Length of Visible Light 13h 31m
Length of Day
12h 43m
Tomorrow will be 1m 43s shorter.
Waxing Crescent, 49% of the Moon is Illuminated
Today
Waxing Crescent
Sep 2
First Quarter
Sep 8
Full
Sep 15
Last Quarter
Sep 24
New

Today's Extremes

State Highs State Lows

Community

WunderPhotos

Upload Photos

1,749,589 photos uploaded!

WunderBlogs® & News

Nearby

Snow Depth

Station Depth Elevation
No new snow has been reported.

Earthquake Activity

City Distance Mag. Time & Date
No recent earthquake activity has been reported nearby.
Minimum magnitude displayed is 2.5.

Coastal Water Temperatures

Place Temperature
No Stations Reporting

Nearby Weather Stations